Time;durP1;ratioP1;P1;durP2;ratioP2;P2;SDS_P1;SDS_P2;PMS_P1;PMS_P2;Temp;Humidity;BMP_temperature;BMP_pressure;BME280_temperature;BME280_humidity;BME280_pressure;Samples;Min_cycle;Max_cycle;Signal;HPM_P1;HPM_P2
2022/01/19 00:01:05;;;;;;;2.17;1.10;;;-1.60;99.90;;;;;;2214289;64;20171;-32
2022/01/19 00:03:32;;;;;;;3.10;1.80;;;-1.60;99.90;;;;;;2217384;64;20091;-32
2022/01/19 00:05:59;;;;;;;2.57;1.77;;;-1.60;99.90;;;;;;2217577;64;20084;-38
2022/01/19 00:08:28;;;;;;;1.00;0.80;;;-1.60;99.90;;;;;;2217394;64;20111;-37
2022/01/19 00:10:55;;;;;;;4.17;1.00;;;-1.60;99.90;;;;;;2211301;64;20088;-35
2022/01/19 00:13:22;;;;;;;3.03;1.70;;;-1.60;99.90;;;;;;2217390;64;20645;-35
2022/01/19 00:15:49;;;;;;;2.67;1.50;;;-1.60;99.90;;;;;;2217517;64;20111;-33
2022/01/19 00:18:17;;;;;;;2.13;1.37;;;-1.60;99.90;;;;;;2217470;64;20099;-34
2022/01/19 00:20:45;;;;;;;2.57;1.70;;;-1.60;99.90;;;;;;2217572;64;20099;-33
2022/01/19 00:23:12;;;;;;;1.10;0.70;;;-1.60;99.90;;;;;;2217427;64;20115;-32
2022/01/19 00:25:39;;;;;;;2.47;1.13;;;-1.60;99.90;;;;;;2215342;64;20107;-32
2022/01/19 00:28:06;;;;;;;2.10;1.03;;;-1.60;99.90;;;;;;2213091;64;20080;-33
2022/01/19 00:30:33;;;;;;;5.33;1.53;;;-1.60;99.90;;;;;;2213591;64;20144;-33
2022/01/19 00:33:00;;;;;;;2.40;1.03;;;-1.60;99.90;;;;;;2213340;64;20115;-34
2022/01/19 00:35:30;;;;;;;2.10;1.00;;;-1.60;99.90;;;;;;2213472;64;20464;-33
2022/01/19 00:37:57;;;;;;;2.37;0.93;;;-1.60;99.90;;;;;;2210249;64;20094;-34
2022/01/19 00:40:23;;;;;;;3.53;1.87;;;-1.60;99.90;;;;;;2213583;64;20084;-35
2022/01/19 00:42:51;;;;;;;1.93;0.97;;;-1.60;99.90;;;;;;2213899;64;20552;-33
2022/01/19 00:45:18;;;;;;;3.93;1.77;;;-1.60;99.90;;;;;;2214165;64;20126;-34
2022/01/19 00:47:45;;;;;;;2.80;1.47;;;-1.60;99.90;;;;;;2217185;64;20093;-35
2022/01/19 00:50:14;;;;;;;3.97;2.07;;;-1.60;99.90;;;;;;2210866;64;20092;-32
2022/01/19 00:52:41;;;;;;;4.97;1.47;;;-1.60;99.90;;;;;;2213779;64;20104;-37
2022/01/19 00:55:10;;;;;;;2.57;0.97;;;-1.60;99.90;;;;;;2214173;64;20092;-38
2022/01/19 00:57:37;;;;;;;2.23;0.97;;;-1.60;99.90;;;;;;2213918;64;20158;-38
2022/01/19 01:00:06;;;;;;;2.40;1.20;;;-1.60;99.90;;;;;;2214127;64;20088;-35
2022/01/19 01:02:32;;;;;;;3.37;1.90;;;-1.60;99.90;;;;;;2213928;64;20484;-32
2022/01/19 01:04:59;;;;;;;3.97;2.40;;;-1.60;99.90;;;;;;2214061;64;20096;-35
2022/01/19 01:07:27;;;;;;;3.80;1.83;;;-1.60;99.90;;;;;;2214057;64;20131;-33
2022/01/19 01:09:55;;;;;;;2.90;1.20;;;-1.70;99.90;;;;;;2214154;64;20100;-33
2022/01/19 01:12:29;;;;;;;5.30;3.27;;;-1.70;99.90;;;;;;2214066;64;20177;-33
2022/01/19 01:20:26;;;;;;;5.30;2.65;;;-1.80;99.90;;;;;;2214001;64;20093;-33
2022/01/19 01:22:53;;;;;;;4.90;2.67;;;-1.80;99.90;;;;;;2213852;64;20615;-33
2022/01/19 01:25:23;;;;;;;11.40;3.50;;;-1.80;99.90;;;;;;2215637;64;20092;-33
2022/01/19 01:27:50;;;;;;;2.20;1.27;;;-1.80;99.90;;;;;;2217829;64;20084;-37
2022/01/19 01:30:17;;;;;;;6.07;3.03;;;-1.90;99.90;;;;;;2218110;64;20099;-34
2022/01/19 01:32:44;;;;;;;8.47;3.67;;;-1.90;99.90;;;;;;2217812;64;20080;-35
2022/01/19 01:35:11;;;;;;;4.17;2.27;;;-1.90;99.90;;;;;;2217810;64;20092;-34
2022/01/19 01:37:38;;;;;;;4.67;2.53;;;-1.90;99.90;;;;;;2217804;64;20114;-33
2022/01/19 01:40:07;;;;;;;4.10;2.07;;;-2.00;99.90;;;;;;2217699;64;20465;-33
2022/01/19 01:42:34;;;;;;;4.33;2.43;;;-2.00;99.90;;;;;;2217709;64;20092;-33
2022/01/19 01:45:02;;;;;;;6.87;2.33;;;-2.00;99.90;;;;;;2217946;64;20140;-33
2022/01/19 01:47:30;;;;;;;6.07;1.93;;;-2.00;99.90;;;;;;2217697;64;20073;-33
2022/01/19 01:55:12;;;;;;;3.03;1.63;;;-2.00;99.90;;;;;;2217697;64;20100;-36
2022/01/19 01:57:39;;;;;;;2.90;1.77;;;-2.00;99.90;;;;;;2217481;64;20107;-33
2022/01/19 02:00:08;;;;;;;8.73;4.03;;;-2.10;99.90;;;;;;2217817;64;20084;-38
2022/01/19 02:02:35;;;;;;;6.70;2.27;;;-2.10;99.90;;;;;;2217574;64;20107;-34
2022/01/19 02:05:03;;;;;;;6.57;2.57;;;-2.10;99.90;;;;;;2213738;64;20153;-35
2022/01/19 02:07:41;;;;;;;4.97;2.70;;;-2.10;99.90;;;;;;2217675;64;20100;-34
2022/01/19 02:10:30;;;;;;;4.00;1.90;;;-2.10;99.90;;;;;;2217952;64;20088;-33
2022/01/19 02:24:12;;;;;;;3.60;1.70;;;-2.20;99.90;;;;;;2217719;64;20139;-34
2022/01/19 02:42:40;;;;;;;4.33;2.13;;;-2.20;99.90;;;;;;2213413;64;20116;-37
2022/01/19 02:50:20;;;;;;;9.13;2.13;;;-2.20;99.90;;;;;;2205018;64;20081;-35
2022/01/19 02:52:47;;;;;;;4.03;1.87;;;-2.20;99.90;;;;;;2204849;64;20133;-33
2022/01/19 02:55:14;;;;;;;5.43;2.73;;;-2.10;99.90;;;;;;2204909;64;20094;-33
2022/01/19 02:57:46;;;;;;;2.90;1.23;;;-2.20;99.90;;;;;;2195507;64;20113;-35
2022/01/19 03:08:46;;;;;;;3.07;1.10;;;-2.20;99.90;;;;;;2204950;64;19973;-35
2022/01/19 03:11:15;;;;;;;3.33;1.67;;;-2.20;99.90;;;;;;2204915;64;20240;-39
2022/01/19 03:13:44;;;;;;;7.53;2.50;;;-2.20;99.90;;;;;;2204964;64;20093;-39
2022/01/19 03:16:10;;;;;;;4.50;1.93;;;-2.10;99.90;;;;;;2201794;64;20528;-40
2022/01/19 03:18:37;;;;;;;5.70;2.40;;;-2.20;99.90;;;;;;2208988;64;20101;-41
2022/01/19 03:21:05;;;;;;;2.20;0.93;;;-2.20;99.90;;;;;;2216825;64;20178;-37
2022/01/19 03:23:32;;;;;;;8.23;2.00;;;-2.20;99.90;;;;;;2213743;64;20089;-35
2022/01/19 03:26:04;;;;;;;2.77;1.07;;;-2.20;99.90;;;;;;2216166;64;20168;-35
2022/01/19 03:28:31;;;;;;;5.03;2.13;;;-2.20;99.90;;;;;;2214529;64;20552;-34
2022/01/19 03:30:58;;;;;;;3.57;1.80;;;-2.20;99.90;;;;;;2217517;64;20115;-38
2022/01/19 03:33:28;;;;;;;4.10;2.00;;;-2.20;99.90;;;;;;2217660;64;20084;-35
2022/01/19 03:35:55;;;;;;;4.67;2.43;;;-2.20;99.90;;;;;;2217508;64;20099;-35
2022/01/19 03:38:22;;;;;;;6.40;2.27;;;-2.20;99.90;;;;;;2217421;64;20095;-37
2022/01/19 03:40:49;;;;;;;4.07;1.07;;;-2.20;99.90;;;;;;2217394;64;20570;-36
2022/01/19 03:43:16;;;;;;;4.60;2.03;;;-2.10;99.90;;;;;;2217630;64;20152;-37
2022/01/19 03:45:51;;;;;;;2.47;0.87;;;-2.10;99.90;;;;;;2217393;64;20579;-35
2022/01/19 03:50:50;;;;;;;5.30;2.07;;;-2.10;99.90;;;;;;2217544;64;19983;-35
2022/01/19 03:53:17;;;;;;;5.43;2.17;;;-2.10;99.90;;;;;;2217248;64;20087;-33
2022/01/19 03:55:44;;;;;;;4.10;2.00;;;-2.10;99.90;;;;;;2210151;64;20088;-35
2022/01/19 03:58:11;;;;;;;5.90;1.93;;;-2.10;99.90;;;;;;2208382;64;20636;-35
2022/01/19 04:00:42;;;;;;;7.67;1.83;;;-2.10;99.90;;;;;;2208540;64;20101;-38
2022/01/19 04:03:12;;;;;;;5.27;2.37;;;-2.10;99.90;;;;;;2208510;64;20101;-38
2022/01/19 04:08:18;;;;;;;4.33;1.83;;;-2.10;99.90;;;;;;2208483;64;20189;-36
2022/01/19 04:10:45;;;;;;;3.77;1.10;;;-2.10;99.90;;;;;;2208661;64;20256;-34
2022/01/19 04:13:44;;;;;;;5.00;2.10;;;-2.10;99.90;;;;;;2208488;64;20107;-38
2022/01/19 04:15:59;;;;;;;4.93;1.50;;;-2.00;99.90;;;;;;2211698;64;20595;-36
2022/01/19 04:18:26;;;;;;;3.53;1.90;;;-2.00;99.90;;;;;;2215056;64;20097;-35
2022/01/19 04:20:54;;;;;;;2.97;1.63;;;-2.00;99.90;;;;;;2208502;64;20089;-37
2022/01/19 04:23:25;;;;;;;3.83;1.83;;;-2.00;99.90;;;;;;2214927;64;20085;-36
2022/01/19 04:25:53;;;;;;;7.50;3.50;;;-2.00;99.90;;;;;;2206233;64;20201;-36
2022/01/19 04:28:21;;;;;;;4.93;2.67;;;-2.00;99.90;;;;;;2212185;64;20089;-35
2022/01/19 04:30:48;;;;;;;8.00;3.37;;;-2.00;99.90;;;;;;2213355;64;20081;-40
2022/01/19 04:33:21;;;;;;;6.53;2.27;;;-1.90;99.90;;;;;;2213492;64;20095;-42
2022/01/19 04:35:54;;;;;;;6.37;2.90;;;-1.90;99.90;;;;;;2213600;64;20543;-35
2022/01/19 04:44:07;;;;;;;4.47;2.13;;;-1.90;99.90;;;;;;2213547;64;20171;-36
2022/01/19 05:03:02;;;;;;;4.03;1.90;;;-1.80;99.90;;;;;;2213185;64;20027;-35
2022/01/19 05:05:33;;;;;;;4.22;1.77;;;-1.80;99.90;;;;;;2216534;64;20108;-35
2022/01/19 05:08:17;;;;;;;4.53;2.20;;;-1.80;99.90;;;;;;2216754;64;20170;-36
2022/01/19 05:13:55;;;;;;;3.63;1.97;;;-1.70;99.90;;;;;;2200832;64;20276;-37
2022/01/19 05:16:22;;;;;;;4.37;1.00;;;-1.70;99.90;;;;;;2211552;64;20104;-38
2022/01/19 05:18:50;;;;;;;5.17;1.63;;;-1.70;99.90;;;;;;2213328;64;20076;-37
2022/01/19 05:21:17;;;;;;;3.23;1.73;;;-1.70;99.90;;;;;;2213226;64;20545;-36
2022/01/19 05:23:44;;;;;;;4.60;2.03;;;-1.70;99.90;;;;;;2213479;64;20104;-38
2022/01/19 05:26:11;;;;;;;5.83;2.10;;;-1.70;99.90;;;;;;2216100;64;20092;-37
2022/01/19 05:28:38;;;;;;;4.80;2.13;;;-1.70;99.90;;;;;;2214386;64;20103;-33
2022/01/19 05:31:05;;;;;;;4.93;1.73;;;-1.60;99.90;;;;;;2217841;64;20445;-37
2022/01/19 05:33:32;;;;;;;4.00;1.90;;;-1.60;99.90;;;;;;2218013;64;20165;-36
2022/01/19 05:35:59;;;;;;;7.53;2.57;;;-1.60;99.90;;;;;;2217616;64;20092;-35
2022/01/19 05:38:26;;;;;;;3.10;1.33;;;-1.50;99.90;;;;;;2208861;64;20108;-38
2022/01/19 05:40:55;;;;;;;3.67;2.17;;;-1.50;99.90;;;;;;2208962;64;20081;-35
2022/01/19 05:43:23;;;;;;;4.00;1.90;;;-1.50;99.90;;;;;;2208966;64;20116;-38
2022/01/19 05:45:50;;;;;;;2.63;1.10;;;-1.50;99.90;;;;;;2209106;64;20085;-35
2022/01/19 05:48:17;;;;;;;3.50;2.07;;;-1.40;99.90;;;;;;2209077;64;20085;-34
2022/01/19 05:50:43;;;;;;;2.90;1.20;;;-1.40;99.90;;;;;;2215495;64;20135;-38
2022/01/19 05:53:10;;;;;;;4.50;2.23;;;-1.40;99.90;;;;;;2208888;64;20096;-36
2022/01/19 05:55:37;;;;;;;4.27;2.13;;;-1.40;99.90;;;;;;2209034;64;20174;-34
2022/01/19 05:58:04;;;;;;;4.90;2.33;;;-1.40;99.90;;;;;;2209030;64;20100;-36
2022/01/19 06:00:31;;;;;;;4.70;1.73;;;-1.40;99.90;;;;;;2212228;64;20229;-36
2022/01/19 06:02:58;;;;;;;4.10;1.93;;;-1.40;99.90;;;;;;2211984;64;20113;-35
2022/01/19 06:05:25;;;;;;;5.67;3.13;;;-1.30;99.90;;;;;;2208888;64;20100;-37
2022/01/19 06:08:09;;;;;;;5.00;1.97;;;-1.30;99.90;;;;;;2208884;64;20089;-37
2022/01/19 06:10:45;;;;;;;3.87;2.07;;;-1.30;99.90;;;;;;2216820;64;20131;-36
2022/01/19 06:13:13;;;;;;;2.43;1.00;;;-1.30;99.90;;;;;;2217588;64;20130;-35
2022/01/19 06:15:41;;;;;;;4.90;2.17;;;-1.20;99.90;;;;;;2217436;64;20119;-35
2022/01/19 06:18:08;;;;;;;2.57;1.00;;;-1.20;99.90;;;;;;2217768;64;20171;-34
2022/01/19 06:20:35;;;;;;;4.73;2.67;;;-1.10;99.90;;;;;;2217742;64;20088;-37
2022/01/19 06:23:02;;;;;;;3.00;1.80;;;-1.10;99.90;;;;;;2217700;64;20173;-37
2022/01/19 06:25:29;;;;;;;4.43;2.53;;;-1.10;99.90;;;;;;2215822;64;20092;-36
2022/01/19 06:27:56;;;;;;;6.07;3.13;;;-1.10;99.90;;;;;;2213728;64;20484;-37
2022/01/19 06:30:22;;;;;;;3.83;1.60;;;-1.10;99.90;;;;;;2213789;64;20107;-37
2022/01/19 06:32:49;;;;;;;5.50;1.87;;;-1.10;99.90;;;;;;2213869;64;20152;-36
2022/01/19 06:35:16;;;;;;;2.63;1.33;;;-1.10;99.90;;;;;;2213804;64;20100;-36
2022/01/19 06:37:43;;;;;;;3.53;2.03;;;-1.10;99.90;;;;;;2213686;64;20198;-38
2022/01/19 06:40:11;;;;;;;4.50;1.80;;;-1.10;99.90;;;;;;2213591;64;20146;-41
2022/01/19 06:42:38;;;;;;;4.23;2.67;;;-1.10;99.90;;;;;;2213757;64;20105;-38
2022/01/19 06:45:06;;;;;;;5.60;2.83;;;-1.10;99.90;;;;;;2213825;64;20105;-41
2022/01/19 06:47:33;;;;;;;2.87;1.47;;;-1.10;99.90;;;;;;2213817;64;20103;-39
2022/01/19 06:49:59;;;;;;;5.33;3.67;;;-1.10;99.90;;;;;;2213724;64;20101;-38
2022/01/19 06:52:26;;;;;;;4.83;3.07;;;-1.10;99.90;;;;;;2213622;64;20092;-36
2022/01/19 06:54:53;;;;;;;6.23;3.77;;;-1.10;99.90;;;;;;2213687;64;20626;-35
2022/01/19 06:57:20;;;;;;;8.23;3.33;;;-1.10;99.90;;;;;;2213845;64;20101;-35
2022/01/19 06:59:51;;;;;;;6.50;2.93;;;-1.10;99.90;;;;;;2213536;64;20100;-36
2022/01/19 07:02:18;;;;;;;9.60;3.90;;;-1.10;99.90;;;;;;2213822;64;20101;-35
2022/01/19 07:04:49;;;;;;;9.50;4.03;;;-1.00;99.90;;;;;;2213503;64;20089;-40
2022/01/19 07:07:17;;;;;;;8.07;3.40;;;-1.00;99.90;;;;;;2213862;64;20088;-38
2022/01/19 07:09:44;;;;;;;7.10;3.87;;;-1.00;99.90;;;;;;2213502;64;20081;-38
2022/01/19 07:12:11;;;;;;;7.73;3.97;;;-1.00;99.90;;;;;;2213772;64;20150;-37
2022/01/19 07:14:38;;;;;;;4.13;1.70;;;-1.00;99.90;;;;;;2213700;64;20180;-35
2022/01/19 07:17:05;;;;;;;9.03;3.83;;;-1.00;99.90;;;;;;2213800;64;20545;-38
2022/01/19 07:19:32;;;;;;;8.93;4.27;;;-1.00;99.90;;;;;;2213535;64;20088;-39
2022/01/19 07:21:59;;;;;;;7.20;3.93;;;-1.00;99.90;;;;;;2213482;64;20549;-37
2022/01/19 07:24:26;;;;;;;4.10;2.83;;;-1.10;99.90;;;;;;2213740;64;20619;-37
2022/01/19 07:26:53;;;;;;;10.60;5.33;;;-1.00;99.90;;;;;;2217414;64;20076;-37
2022/01/19 07:29:20;;;;;;;9.67;4.20;;;-1.10;99.90;;;;;;2217324;64;20100;-37
2022/01/19 07:31:47;;;;;;;7.93;4.20;;;-1.00;99.90;;;;;;2217530;64;20092;-37
2022/01/19 07:34:14;;;;;;;7.10;4.33;;;-1.10;99.90;;;;;;2217447;64;20114;-36
2022/01/19 07:36:41;;;;;;;6.80;4.80;;;-1.10;99.90;;;;;;2217593;64;20076;-39
2022/01/19 07:39:09;;;;;;;5.97;3.17;;;-1.10;99.90;;;;;;2217409;64;20151;-38
2022/01/19 07:41:38;;;;;;;8.00;4.23;;;-1.10;99.90;;;;;;2217351;64;20180;-38
2022/01/19 07:44:06;;;;;;;8.07;4.40;;;-1.10;99.90;;;;;;2217380;64;20215;-40
2022/01/19 07:46:32;;;;;;;8.23;3.47;;;-1.10;99.90;;;;;;2217518;64;20544;-37
2022/01/19 07:49:00;;;;;;;6.77;3.67;;;-1.00;99.90;;;;;;2217511;64;20106;-36
2022/01/19 07:51:26;;;;;;;7.27;4.03;;;-1.10;99.90;;;;;;2217102;64;20487;-38
2022/01/19 07:53:53;;;;;;;10.67;5.60;;;-1.10;99.90;;;;;;2217352;64;20092;-36
2022/01/19 07:56:20;;;;;;;8.33;4.07;;;-1.10;99.90;;;;;;2217462;64;20111;-37
2022/01/19 07:58:47;;;;;;;11.37;4.83;;;-1.00;99.90;;;;;;2217314;64;20080;-37
2022/01/19 08:01:14;;;;;;;6.83;3.97;;;-1.00;99.90;;;;;;2217328;64;20100;-39
2022/01/19 08:03:41;;;;;;;7.33;3.27;;;-1.00;99.90;;;;;;2217342;64;20103;-36
2022/01/19 08:06:12;;;;;;;8.83;5.07;;;-1.00;99.90;;;;;;2206936;64;20599;-38
2022/01/19 08:08:39;;;;;;;9.67;4.87;;;-1.00;99.90;;;;;;2217433;64;20088;-35
2022/01/19 08:11:06;;;;;;;7.43;4.67;;;-1.00;99.90;;;;;;2217447;64;20570;-36
2022/01/19 08:13:33;;;;;;;9.57;3.70;;;-1.00;99.90;;;;;;2217235;64;20108;-35
2022/01/19 08:16:00;;;;;;;15.10;4.27;;;-1.00;99.90;;;;;;2217459;64;20092;-38
2022/01/19 08:18:27;;;;;;;5.00;3.03;;;-1.00;99.90;;;;;;2217130;64;20088;-36
2022/01/19 08:20:54;;;;;;;7.30;2.93;;;-0.90;99.90;;;;;;2217217;64;20114;-35
2022/01/19 08:23:20;;;;;;;6.30;3.60;;;-0.90;99.90;;;;;;2217050;64;20100;-37
2022/01/19 08:25:47;;;;;;;6.80;3.90;;;-0.80;99.90;;;;;;2215081;64;20548;-33
2022/01/19 08:28:14;;;;;;;8.47;4.63;;;-0.90;99.90;;;;;;2213259;64;20164;-34
2022/01/19 08:30:41;;;;;;;6.07;3.60;;;-0.90;99.90;;;;;;2213304;64;20093;-34
2022/01/19 08:33:09;;;;;;;6.87;3.83;;;-0.90;99.90;;;;;;2213293;64;20096;-37
2022/01/19 08:35:39;;;;;;;8.37;3.93;;;-0.90;99.90;;;;;;2213453;64;20150;-34
2022/01/19 08:38:06;;;;;;;3.90;2.37;;;-0.80;99.90;;;;;;2216441;64;20542;-36
2022/01/19 08:40:34;;;;;;;7.00;4.30;;;-0.80;99.90;;;;;;2207204;64;20088;-35
2022/01/19 08:43:01;;;;;;;7.30;3.37;;;-0.80;99.90;;;;;;2213266;64;20080;-39
2022/01/19 08:45:28;;;;;;;9.37;5.70;;;-0.80;99.90;;;;;;2213551;64;20092;-35
2022/01/19 08:47:55;;;;;;;6.50;3.77;;;-0.90;99.90;;;;;;2213157;64;20097;-35
2022/01/19 08:50:21;;;;;;;7.23;4.57;;;-1.00;99.90;;;;;;2213414;64;20089;-35
2022/01/19 08:52:48;;;;;;;6.90;4.40;;;-1.10;99.90;;;;;;2213254;64;20560;-39
2022/01/19 08:55:18;;;;;;;6.70;3.43;;;-1.10;99.90;;;;;;2213575;64;20575;-37
2022/01/19 08:57:46;;;;;;;9.43;5.10;;;-1.10;99.90;;;;;;2213363;64;20100;-44
2022/01/19 09:00:15;;;;;;;7.83;4.47;;;-1.20;99.90;;;;;;2216678;64;20107;-36
2022/01/19 09:02:42;;;;;;;6.67;3.10;;;-1.10;99.90;;;;;;2213439;64;20080;-42
2022/01/19 09:05:09;;;;;;;7.57;5.07;;;-1.20;99.90;;;;;;2214183;64;20093;-36
2022/01/19 09:07:37;;;;;;;4.97;3.10;;;-1.30;99.90;;;;;;2213838;64;20096;-36
2022/01/19 09:10:05;;;;;;;5.10;3.27;;;-1.30;99.90;;;;;;2214002;64;20535;-36
2022/01/19 09:12:33;;;;;;;11.23;3.00;;;-1.30;99.90;;;;;;2213912;64;20107;-36
2022/01/19 09:15:00;;;;;;;5.13;2.43;;;-1.40;99.90;;;;;;2214089;64;20085;-36
2022/01/19 09:17:27;;;;;;;6.67;4.37;;;-1.50;99.90;;;;;;2213873;64;20179;-34
2022/01/19 09:19:54;;;;;;;4.57;2.70;;;-1.60;99.90;;;;;;2213997;64;20080;-36
2022/01/19 09:22:21;;;;;;;5.93;3.40;;;-1.60;99.90;;;;;;2213912;64;20123;-38
2022/01/19 09:24:48;;;;;;;10.27;4.60;;;-1.60;99.90;;;;;;2214524;64;20122;-38
2022/01/19 09:27:18;;;;;;;7.00;3.53;;;-1.70;99.90;;;;;;2217961;64;20464;-43
2022/01/19 09:29:45;;;;;;;5.80;2.83;;;-1.70;99.90;;;;;;2217922;64;20084;-41
2022/01/19 09:32:15;;;;;;;7.80;4.43;;;-1.70;99.90;;;;;;2217711;64;20115;-41
2022/01/19 09:34:47;;;;;;;8.10;4.57;;;-1.80;99.90;;;;;;2217772;64;20529;-39
2022/01/19 09:37:18;;;;;;;6.50;3.33;;;-1.80;99.90;;;;;;2217700;64;20107;-37
2022/01/19 09:39:45;;;;;;;5.87;2.70;;;-1.80;99.90;;;;;;2214691;64;20092;-38
2022/01/19 09:42:12;;;;;;;9.63;5.20;;;-1.70;99.90;;;;;;2217645;64;20092;-39
2022/01/19 09:44:39;;;;;;;10.13;5.27;;;-1.80;99.90;;;;;;2217839;64;20088;-38
2022/01/19 09:47:07;;;;;;;7.37;4.57;;;-1.80;99.90;;;;;;2217672;64;20532;-37
2022/01/19 09:49:34;;;;;;;9.80;4.70;;;-1.70;99.90;;;;;;2217606;64;20084;-38
2022/01/19 09:52:01;;;;;;;9.80;4.90;;;-1.80;99.90;;;;;;2217405;64;20172;-39
2022/01/19 09:54:31;;;;;;;4.30;2.33;;;-1.90;99.90;;;;;;2217821;64;20076;-39
2022/01/19 09:56:58;;;;;;;7.37;4.50;;;-1.80;99.90;;;;;;2217742;64;20080;-36
2022/01/19 09:59:25;;;;;;;9.40;4.67;;;-1.90;99.90;;;;;;2220907;64;20088;-38
2022/01/19 10:01:59;;;;;;;7.07;3.53;;;-1.90;99.90;;;;;;2217475;64;20089;-38
2022/01/19 10:04:27;;;;;;;8.17;3.80;;;-1.90;99.90;;;;;;2217900;64;20099;-38
2022/01/19 10:07:13;;;;;;;8.73;4.07;;;-1.90;99.90;;;;;;2217683;64;20118;-37
2022/01/19 10:09:52;;;;;;;8.10;3.90;;;-1.90;99.90;;;;;;2217576;64;20164;-35
2022/01/19 10:18:22;;;;;;;5.80;2.60;;;-2.00;99.90;;;;;;2217591;64;20176;-39
2022/01/19 10:21:24;;;;;;;;;;;-2.00;99.90;;;;;;2218053;64;20076;-37
2022/01/19 10:23:53;;;;;;;10.33;4.87;;;-2.00;99.90;;;;;;2201198;64;20583;-38
2022/01/19 10:26:25;;;;;;;8.13;3.97;;;-1.90;99.90;;;;;;2204276;64;20078;-38
2022/01/19 10:29:09;;;;;;;10.37;5.17;;;-2.00;99.90;;;;;;2197378;64;20440;-38
2022/01/19 10:31:41;;;;;;;10.10;4.70;;;-1.90;99.90;;;;;;2197304;65;20083;-37
2022/01/19 10:34:11;;;;;;;6.67;3.57;;;-2.00;99.90;;;;;;2197318;65;20095;-37
2022/01/19 10:37:00;;;;;;;10.13;4.43;;;-2.00;99.90;;;;;;2197195;65;20216;-36
2022/01/19 10:39:57;;;;;;;11.00;6.83;;;-2.10;99.90;;;;;;2203668;65;20102;-38
2022/01/19 10:42:31;;;;;;;4.40;2.37;;;-2.10;99.90;;;;;;2203590;64;20154;-38
2022/01/19 10:45:00;;;;;;;6.70;2.73;;;-2.10;99.90;;;;;;2197421;65;20102;-36
2022/01/19 10:47:48;;;;;;;4.43;2.80;;;-2.10;99.90;;;;;;2200524;65;20185;-36
2022/01/19 10:50:28;;;;;;;6.63;3.17;;;-2.00;99.90;;;;;;2200528;65;20221;-37
2022/01/19 10:53:00;;;;;;;10.77;6.13;;;-2.10;99.90;;;;;;2200195;65;20573;-37
2022/01/19 10:55:45;;;;;;;9.10;5.30;;;-2.10;99.90;;;;;;2203741;64;20113;-38
2022/01/19 10:58:14;;;;;;;10.20;5.57;;;-2.10;99.90;;;;;;2210234;64;20174;-37
2022/01/19 11:00:48;;;;;;;8.43;4.33;;;-2.10;99.90;;;;;;2213673;64;20084;-39
2022/01/19 11:03:23;;;;;;;4.38;2.60;;;-2.10;99.90;;;;;;2210239;64;20130;-39
2022/01/19 11:05:56;;;;;;;5.72;3.13;;;-2.10;99.90;;;;;;2213828;64;20104;-38
2022/01/19 11:08:28;;;;;;;6.77;3.73;;;-2.10;99.90;;;;;;2213641;64;20100;-44
2022/01/19 11:10:56;;;;;;;9.53;3.77;;;-2.20;99.90;;;;;;2213589;64;20147;-39
2022/01/19 11:13:40;;;;;;;10.47;4.73;;;-2.20;99.90;;;;;;2213374;64;20143;-40
2022/01/19 11:16:07;;;;;;;6.27;3.80;;;-2.20;99.90;;;;;;2213567;64;20464;-43
2022/01/19 11:18:38;;;;;;;9.87;5.63;;;-2.30;99.90;;;;;;2213485;64;20468;-43
2022/01/19 11:21:07;;;;;;;9.47;4.87;;;-2.20;99.90;;;;;;2213700;64;20116;-37
2022/01/19 11:23:55;;;;;;;9.07;4.40;;;-2.30;99.90;;;;;;2213650;64;20549;-37
2022/01/19 11:26:23;;;;;;;9.10;4.80;;;-2.40;99.90;;;;;;2216833;64;20083;-37
2022/01/19 11:28:51;;;;;;;10.40;4.73;;;-2.40;99.90;;;;;;2217389;64;20171;-37
2022/01/19 11:31:35;;;;;;;10.87;5.57;;;-2.40;99.90;;;;;;2217332;64;20104;-37
2022/01/19 11:34:02;;;;;;;9.50;4.27;;;-2.40;99.90;;;;;;2217253;64;20244;-36
2022/01/19 11:36:34;;;;;;;4.10;2.47;;;-2.40;99.90;;;;;;2217540;64;20095;-37
2022/01/19 11:39:21;;;;;;;9.30;5.17;;;-2.40;99.90;;;;;;2217208;64;20476;-39
2022/01/19 11:41:54;;;;;;;7.93;4.57;;;-2.40;99.90;;;;;;2217302;64;20100;-39
2022/01/19 11:44:39;;;;;;;6.00;2.17;;;-2.40;99.90;;;;;;2217431;64;20088;-39
2022/01/19 11:47:11;;;;;;;4.93;3.35;;;-2.40;99.90;;;;;;2214366;64;20088;-37
2022/01/19 11:49:44;;;;;;;6.00;2.67;;;-2.40;99.90;;;;;;2217375;64;20586;-42
2022/01/19 11:52:11;;;;;;;12.53;4.60;;;-2.50;99.90;;;;;;2216713;64;20111;-37
2022/01/19 11:54:39;;;;;;;8.43;3.77;;;-2.50;99.90;;;;;;2216544;64;20160;-36
2022/01/19 11:57:11;;;;;;;8.63;4.10;;;-2.50;99.90;;;;;;2216805;64;20104;-38
2022/01/19 12:00:16;;;;;;;6.93;3.63;;;-2.60;99.90;;;;;;2216501;64;20092;-36
2022/01/19 12:02:54;;;;;;;13.87;5.53;;;-2.60;99.90;;;;;;2213328;64;20089;-36
2022/01/19 12:05:24;;;;;;;6.27;2.87;;;-2.60;99.90;;;;;;2216613;64;20088;-38
2022/01/19 12:08:00;;;;;;;6.50;3.77;;;-2.60;99.90;;;;;;2210297;64;20664;-39
2022/01/19 12:10:37;;;;;;;10.38;6.13;;;-2.60;99.90;;;;;;2220454;64;20088;-38
2022/01/19 12:13:33;;;;;;;6.37;2.93;;;-2.70;99.90;;;;;;2220388;64;20093;-37
2022/01/19 12:19:06;;;;;;;10.07;3.33;;;-2.70;99.90;;;;;;2220459;64;20092;-38
2022/01/19 12:21:34;;;;;;;6.33;3.33;;;-2.70;99.90;;;;;;2220375;64;20105;-35
2022/01/19 12:24:32;;;;;;;8.43;4.27;;;-2.80;99.90;;;;;;2220516;64;20491;-35
2022/01/19 12:27:21;;;;;;;10.03;4.53;;;-2.80;99.90;;;;;;2213049;64;20093;-39
2022/01/19 12:30:09;;;;;;;9.33;5.13;;;-2.80;99.90;;;;;;2216520;64;20098;-38
2022/01/19 12:32:38;;;;;;;8.00;4.07;;;-2.80;99.90;;;;;;2215975;64;20194;-38
2022/01/19 12:35:11;;;;;;;12.07;6.97;;;-2.90;99.90;;;;;;2216565;64;20141;-39
2022/01/19 12:37:56;;;;;;;8.30;3.67;;;-2.90;99.90;;;;;;2216550;64;20412;-40
2022/01/19 12:40:31;;;;;;;12.77;7.75;;;-3.00;99.90;;;;;;2217481;64;20434;-43
2022/01/19 12:43:08;;;;;;;9.70;5.47;;;-3.00;99.90;;;;;;2217215;64;20141;-38
2022/01/19 12:45:55;;;;;;;9.17;6.00;;;-3.00;99.90;;;;;;2216654;64;20446;-37
2022/01/19 12:48:36;;;;;;;11.33;6.87;;;-3.00;99.90;;;;;;2217188;64;20615;-39
2022/01/19 12:51:03;;;;;;;11.57;4.77;;;-3.00;99.90;;;;;;2216716;64;20476;-39
2022/01/19 12:53:34;;;;;;;3.07;1.67;;;-3.00;99.90;;;;;;2216348;64;20136;-41
2022/01/19 12:56:04;;;;;;;3.80;2.67;;;-3.00;99.90;;;;;;2217246;64;20093;-40
2022/01/19 12:58:37;;;;;;;14.83;7.03;;;-3.00;99.90;;;;;;2216661;64;20174;-39
2022/01/19 13:01:07;;;;;;;8.10;4.40;;;-3.10;99.90;;;;;;2216593;64;20081;-37
2022/01/19 13:03:48;;;;;;;10.87;5.17;;;-3.10;99.90;;;;;;2212317;64;20550;-41
2022/01/19 13:06:16;;;;;;;9.30;4.67;;;-3.10;99.90;;;;;;2217332;64;20082;-36
2022/01/19 13:08:57;;;;;;;10.23;3.87;;;-3.10;99.90;;;;;;2217246;64;20093;-43
2022/01/19 13:11:37;;;;;;;15.23;6.90;;;-3.10;99.90;;;;;;2217025;64;20103;-37
2022/01/19 13:14:09;;;;;;;15.90;5.97;;;-3.10;99.90;;;;;;2217026;64;20662;-44
2022/01/19 13:16:44;;;;;;;9.67;3.47;;;-3.10;99.90;;;;;;2216648;64;20148;-37
2022/01/19 13:19:15;;;;;;;;;;;-3.00;99.90;;;;;;2217342;64;20588;-39
2022/01/19 13:21:43;;;;;;;7.03;2.37;;;-3.00;99.90;;;;;;2217157;64;20047;-39
2022/01/19 13:24:25;;;;;;;6.17;3.53;;;-3.00;99.90;;;;;;2217116;64;20097;-38
2022/01/19 13:26:59;;;;;;;11.10;4.23;;;-3.00;99.90;;;;;;2217156;64;20169;-38
2022/01/19 13:29:34;;;;;;;4.07;1.38;;;-3.10;99.90;;;;;;2216563;64;20100;-43
2022/01/19 13:32:20;;;;;;;4.50;2.22;;;-3.10;99.90;;;;;;2217188;64;20089;-38
2022/01/19 13:34:55;;;;;;;13.37;5.33;;;-3.10;99.90;;;;;;2216842;64;20100;-38
2022/01/19 13:37:24;;;;;;;11.93;5.43;;;-3.10;99.90;;;;;;2216988;64;20077;-42
2022/01/19 13:40:16;;;;;;;7.63;3.43;;;-3.10;99.90;;;;;;2217038;64;20107;-43
2022/01/19 13:42:44;;;;;;;11.43;4.37;;;-3.20;99.90;;;;;;2217132;64;20579;-42
2022/01/19 13:46:13;;;;;;;14.27;5.80;;;-3.20;99.90;;;;;;2216821;64;20504;-38
2022/01/19 13:48:29;;;;;;;7.33;3.57;;;-3.20;99.90;;;;;;2215612;64;20157;-42
2022/01/19 13:51:02;;;;;;;9.80;4.00;;;-3.20;99.90;;;;;;2216161;64;20103;-42
2022/01/19 13:53:32;;;;;;;9.47;4.53;;;-3.20;99.90;;;;;;2216526;64;20132;-40
2022/01/19 13:56:02;;;;;;;16.07;7.83;;;-3.30;99.90;;;;;;2216531;64;20589;-46
2022/01/19 13:58:46;;;;;;;9.80;3.77;;;-3.30;99.90;;;;;;2217177;64;20560;-39
2022/01/19 14:01:19;;;;;;;4.87;1.83;;;-3.30;99.90;;;;;;2217008;64;20549;-44
2022/01/19 14:03:55;;;;;;;5.83;2.83;;;-3.30;99.90;;;;;;2217069;64;20473;-41
2022/01/19 14:06:53;;;;;;;5.93;2.53;;;-3.30;99.90;;;;;;2216867;64;20556;-39
2022/01/19 14:09:35;;;;;;;10.20;5.63;;;-3.30;99.90;;;;;;2216340;64;20096;-36
2022/01/19 14:12:08;;;;;;;13.10;6.37;;;-3.40;99.90;;;;;;2216963;64;20093;-37
2022/01/19 14:14:59;;;;;;;11.07;3.93;;;-3.40;99.90;;;;;;2216917;64;20186;-36
2022/01/19 14:17:42;;;;;;;16.20;7.70;;;-3.40;99.90;;;;;;2216987;64;20637;-36
2022/01/19 14:20:21;;;;;;;11.87;5.67;;;-3.50;99.90;;;;;;2216875;64;20596;-38
2022/01/19 14:22:48;;;;;;;14.43;6.40;;;-3.40;99.90;;;;;;2216747;64;20565;-38
2022/01/19 14:25:18;;;;;;;15.77;7.17;;;-3.50;99.90;;;;;;2213846;64;20088;-38
2022/01/19 14:27:54;;;;;;;16.97;7.83;;;-3.50;99.90;;;;;;2216929;64;20581;-37
2022/01/19 14:30:25;;;;;;;15.87;6.40;;;-3.50;99.90;;;;;;2216266;64;20088;-38
2022/01/19 14:33:09;;;;;;;20.53;8.30;;;-3.50;99.90;;;;;;2216164;64;20619;-39
2022/01/19 14:35:40;;;;;;;8.33;3.80;;;-3.50;99.90;;;;;;2216789;64;20085;-38